Flight Track Log - Related Links

Times and Time Zones

All times are in EDT time to prevent confusion due to time zone crossing. See the FFT143 flight status page for this flight to view local times or setup timezone preferences in your user account.

Time Position Orientation Groundspeed Altitude Reporting Facility
EDT Latitude Longitude Course Direction KTS MPH feet Rate Location/Type
Tue 07:17:06 AM 29.9528 -95.3375 108° East 163 188 900  Level Houston Center
Tue 07:17:36 AM 29.9464 -95.3142 108° East 174 200 1,700 1,333 Climbing Houston Center
Tue 07:18:36 AM 29.9939 -95.2933 21° North 254 292 2,900 2,231 Climbing Houston Center
Tue 07:19:37 AM 30.0628 -95.3186 342° North 255 293 6,200 3,197 Climbing Houston Center
Tue 07:20:38 AM 30.1267 -95.3667 327° Northwest 271 312 9,400 2,607 Climbing Houston Center
Tue 07:21:39 AM 30.1972 -95.4144 330° Northwest 292 336 11,500 2,479 Climbing Houston Center
Tue 07:22:39 AM 30.2753 -95.4697 329° Northwest 324 373 14,400 2,777 Climbing Houston Center
Tue 07:23:40 AM 30.3714 -95.5383 328° Northwest 337 388 17,100 2,410 Climbing Houston Center
Tue 07:24:41 AM 30.4550 -95.5961 329° Northwest 349 402 19,300 2,115 Climbing Houston Center
Tue 07:25:42 AM 30.5411 -95.6567 329° Northwest 358 412 21,400 1,918 Climbing Houston Center
Tue 07:26:43 AM 30.6397 -95.7047 337° Northwest 381 438 23,200 1,721 Climbing Houston Center
Tue 07:27:44 AM 30.7356 -95.7600 334° Northwest 381 438 24,900 1,686 Climbing Houston Center
Tue 07:28:44 AM 30.8367 -95.8139 335° Northwest 392 451 26,600 1,587 Climbing Houston Center
Tue 07:29:45 AM 30.9408 -95.8694 335° Northwest 402 463 28,100 1,525 Climbing Houston Center
Tue 07:30:46 AM 31.0481 -95.9278 335° Northwest 414 476 29,700 1,426 Climbing Houston Center
Tue 07:31:47 AM 31.1564 -95.9819 337° Northwest 420 483 31,000 1,230 Climbing Houston Center
Tue 07:32:48 AM 31.2750 -96.0261 342° North 433 498 32,200 1,180 Climbing Houston Center
Tue 07:33:49 AM 31.3908 -96.0708 342° North 437 503 33,400 1,574 Climbing Houston Center
Tue 07:34:50 AM 31.5106 -96.1164 342° North 427 491 35,400 1,426 Climbing Houston Center
Tue 07:35:51 AM 31.6219 -96.1603 341° North 419 482 36,300 1,180 Climbing Houston Center
Tue 07:36:52 AM 31.7342 -96.2044 341° North 420 483 37,800 836 Climbing Houston Center
Tue 07:37:53 AM 31.8408 -96.2453 342° North 405 466 38,000 98 Climbing Houston Center
Tue 07:38:54 AM 31.9494 -96.2883 341° North 407 468 38,000  Level Houston Center
Tue 07:39:55 AM 32.0464 -96.3581 329° Northwest 406 467 38,000  Level Houston Center
Tue 07:40:56 AM 32.1386 -96.4364 324° Northwest 405 466 38,000  Level Houston Center
Tue 07:41:57 AM 32.2311 -96.5147 324° Northwest 405 466 38,000  Level Houston Center
Tue 07:42:58 AM 32.3217 -96.5944 323° Northwest 403 464 38,000  Level Houston Center
Tue 07:43:58 AM 32.4222 -96.6850 323° Northwest 409 471 38,000  Level Fort Worth Center
Tue 07:44:58 AM 32.5122 -96.7631 324° Northwest 409 471 38,000  Level Fort Worth Center
Tue 07:45:58 AM 32.6025 -96.8414 324° Northwest 409 471 38,000  Level Fort Worth Center
Tue 07:46:58 AM 32.6925 -96.9172 325° Northwest 409 471 38,000  Level Fort Worth Center
Tue 07:47:58 AM 32.7742 -96.9908 323° Northwest 409 471 38,000  Level Fort Worth Center
Tue 07:48:58 AM 32.8747 -97.0769 324° Northwest 409 471 38,000  Level Fort Worth Center
Tue 07:49:58 AM 32.9564 -97.1486 324° Northwest 414 476 38,000  Level Fort Worth Center
Tue 07:50:58 AM 33.0567 -97.2375 323° Northwest 414 476 38,000  Level Fort Worth Center
Tue 07:51:58 AM 33.1444 -97.3117 325° Northwest 422 486 38,000  Level Fort Worth Center
Tue 07:52:58 AM 33.2319 -97.3911 323° Northwest 415 478 38,000  Level Fort Worth Center
Tue 07:53:58 AM 33.3239 -97.4706 324° Northwest 415 478 38,000  Level Fort Worth Center
Tue 07:54:58 AM 33.4156 -97.5528 323° Northwest 415 478 38,000  Level Fort Worth Center
Tue 07:55:58 AM 33.5053 -97.6328 323° Northwest 415 478 38,000  Level Fort Worth Center
Tue 07:56:58 AM 33.5950 -97.7128 323° Northwest 415 478 38,000  Level Fort Worth Center
Tue 07:57:58 AM 33.6844 -97.7928 323° Northwest 415 478 38,000  Level Fort Worth Center
Tue 07:58:58 AM 33.7739 -97.8733 323° Northwest 410 472 38,000  Level Fort Worth Center
Tue 07:59:58 AM 33.8633 -97.9539 323° Northwest 410 472 38,000  Level Fort Worth Center
Tue 08:00:58 AM 33.9528 -98.0344 323° Northwest 410 472 38,000  Level Fort Worth Center
Tue 08:01:58 AM 34.0419 -98.1153 323° Northwest 410 472 38,000  Level Fort Worth Center
Tue 08:02:58 AM 34.1269 -98.2014 320° Northwest 410 472 38,000  Level Fort Worth Center
Tue 08:03:58 AM 34.2183 -98.2800 325° Northwest 410 472 38,000  Level Fort Worth Center
Tue 08:04:58 AM 34.3075 -98.3664 321° Northwest 410 472 38,000  Level Fort Worth Center
Tue 08:05:58 AM 34.3964 -98.4453 324° Northwest 410 472 38,000  Level Fort Worth Center
Tue 08:06:58 AM 34.4856 -98.5269 323° Northwest 410 472 38,000  Level Fort Worth Center
Tue 08:07:58 AM 34.5744 -98.6089 323° Northwest 410 472 38,000  Level Fort Worth Center
Tue 08:08:58 AM 34.6633 -98.6858 325° Northwest 405 466 38,000  Level Fort Worth Center
Tue 08:09:58 AM 34.7606 -98.7733 324° Northwest 400 460 38,000  Level Fort Worth Center
Tue 08:10:58 AM 34.8494 -98.8558 323° Northwest 400 460 38,000  Level Fort Worth Center
Tue 08:11:58 AM 34.9358 -98.9383 322° Northwest 400 460 38,000  Level Fort Worth Center
Tue 08:12:58 AM 35.0247 -99.0208 323° Northwest 400 460 38,000  Level Fort Worth Center
Tue 08:13:58 AM 35.1111 -99.1039 322° Northwest 394 453 38,000  Level Fort Worth Center
Tue 08:14:58 AM 35.1975 -99.1844 323° Northwest 394 453 38,000  Level Fort Worth Center
Tue 08:15:58 AM 35.2839 -99.2650 323° Northwest 394 453 38,000  Level Fort Worth Center
Tue 08:17:31 AM 35.4069 -99.3806 323° Northwest 397 457 38,000  Level Kansas City Center
Tue 08:18:32 AM 35.4944 -99.4628 323° Northwest 395 455 38,000  Level Kansas City Center
Tue 08:19:33 AM 35.5997 -99.5622 322° Northwest 394 453 38,000  Level Kansas City Center
Tue 08:20:35 AM 35.6864 -99.6453 322° Northwest 392 451 38,000  Level Kansas City Center
Tue 08:21:36 AM 35.7719 -99.7272 322° Northwest 389 448 38,000  Level Kansas City Center
Tue 08:22:37 AM 35.8583 -99.8100 322° Northwest 388 447 38,000  Level Kansas City Center
Tue 08:23:38 AM 35.9447 -99.8928 322° Northwest 389 448 38,000  Level Kansas City Center
Tue 08:24:40 AM 36.0300 -99.9742 322° Northwest 387 445 38,000  Level Kansas City Center
Tue 08:25:41 AM 36.1147 -100.0572 322° Northwest 387 445 38,000  Level Kansas City Center
Tue 08:26:42 AM 36.1997 -100.1394 322° Northwest 385 443 38,000  Level Kansas City Center
Tue 08:27:43 AM 36.2850 -100.2211 322° Northwest 385 443 38,000  Level Kansas City Center
Tue 08:28:44 AM 36.3703 -100.3044 322° Northwest 387 445 38,000  Level Kansas City Center
Tue 08:29:46 AM 36.4625 -100.3919 323° Northwest 384 442 38,000  Level Kansas City Center
Tue 08:30:47 AM 36.5419 -100.4722 321° Northwest 385 443 38,000  Level Kansas City Center
Tue 08:31:48 AM 36.6364 -100.5647 322° Northwest 385 443 38,000  Level Kansas City Center
Tue 08:32:49 AM 36.7156 -100.6442 321° Northwest 383 441 38,000  Level Kansas City Center
Tue 08:33:51 AM 36.7961 -100.7239 322° Northwest 384 442 38,000  Level Kansas City Center
Tue 08:34:52 AM 36.8900 -100.8161 322° Northwest 384 442 38,000  Level Kansas City Center
Tue 08:35:53 AM 36.9692 -100.8961 321° Northwest 382 440 38,000  Level Kansas City Center
Tue 08:36:55 AM 37.0481 -100.9756 321° Northwest 381 438 38,000  Level Kansas City Center
Tue 08:37:56 AM 37.1258 -101.0897 311° West 381 438 38,000  Level Kansas City Center
Tue 08:38:57 AM 37.1925 -101.1875 311° West 384 442 38,000  Level Kansas City Center
Tue 08:39:59 AM 37.2686 -101.3000 310° West 379 436 38,000  Level Kansas City Center
Tue 08:41:00 AM 37.3336 -101.3944 311° West 374 430 38,000  Level Kansas City Center
Tue 08:42:01 AM 37.3989 -101.4900 311° West 374 430 38,000  Level Kansas City Center
Tue 08:43:03 AM 37.4736 -101.6017 310° West 372 428 38,000  Level Kansas City Center
Tue 08:44:04 AM 37.5375 -101.6947 311° West 369 425 38,000  Level Kansas City Center
Tue 08:45:05 AM 37.6006 -101.7886 310° West 367 422 38,000  Level Kansas City Center
Tue 08:46:07 AM 37.6747 -101.8989 310° West 367 422 38,000  Level Kansas City Center
Tue 08:47:08 AM 37.7431 -101.9889 314° West 369 425 38,000  Level Kansas City Center
Tue 08:48:09 AM 37.8208 -102.0972 312° West 371 427 38,000  Level Kansas City Center
Tue 08:49:11 AM 37.8889 -102.1892 313° West 373 429 38,000  Level Kansas City Center
Tue 08:50:18 AM 37.9669 -102.2978 312° West 372 428 38,000  Level Denver Center
Tue 08:51:19 AM 38.0353 -102.3894 313° West 373 429 38,000 -98 Level Denver Center
Tue 08:52:20 AM 38.1131 -102.4975 312° West 372 428 37,800 -541 Descending Denver Center
Tue 08:53:21 AM 38.1797 -102.5900 313° West 370 426 36,900 -836 Descending Denver Center
Tue 08:54:22 AM 38.2464 -102.6808 313° West 368 423 36,100 -439 Descending Denver Center
Tue 08:55:24 AM 38.3228 -102.7897 312° West 368 423 36,000 -49 Descending Denver Center
Tue 08:56:25 AM 38.3903 -102.8831 313° West 373 429 36,000  Level Denver Center
Tue 08:57:26 AM 38.4683 -102.9928 312° West 374 430 36,000  Level Denver Center
Tue 08:58:27 AM 38.5350 -103.0856 313° West 371 427 36,000  Level Denver Center
Tue 08:59:28 AM 38.6033 -103.1817 312° West 376 433 36,000 -885 Level Denver Center
Tue 09:00:29 AM 38.6744 -103.2817 312° West 381 438 34,200 -2,115 Descending Denver Center
Tue 09:01:30 AM 38.7450 -103.3828 312° West 382 440 31,700 -2,508 Descending Denver Center
Tue 09:02:31 AM 38.8250 -103.4969 312° West 374 430 29,100 -2,164 Descending Denver Center
Tue 09:03:32 AM 38.8828 -103.5794 312° West 371 427 27,300 -2,213 Descending Denver Center
Tue 09:04:33 AM 38.9631 -103.6939 312° West 361 415 24,600 -2,115 Descending Denver Center
Tue 09:05:34 AM 39.0156 -103.7719 311° West 361 415 23,000 -1,967 Descending Denver Center
Tue 09:06:35 AM 39.0936 -103.8828 312° West 350 403 20,600 -2,066 Descending Denver Center
Tue 09:07:36 AM 39.1564 -103.9739 312° West 344 396 18,800 -1,525 Descending Denver Center
Tue 09:08:37 AM 39.2186 -104.0639 312° West 338 389 17,500 -1,220 Descending Denver Center
Tue 09:09:39 AM 39.2778 -104.1450 313° West 311 358 16,300 -1,610 Descending Denver Center
Tue 09:10:40 AM 39.3664 -104.1536 356° North 294 338 14,200 -1,770 Descending Denver Center
Tue 09:11:41 AM 39.4461 -104.1550 359° North 292 336 12,700 -1,131 Descending Denver Center
Tue 09:12:42 AM 39.5300 -104.1547 360° North 299 344 11,900 -344 Descending Denver Center
Tue 09:13:43 AM 39.6042 -104.1569 359° North 263 303 12,000 49 Climbing Denver Center
Tue 09:14:44 AM 39.6797 -104.1589 359° North 252 290 12,000 -49 Level Denver Center
Tue 09:15:45 AM 39.7494 -104.1589 360° North 252 290 11,900 -246 Descending Denver Center
Tue 09:16:46 AM 39.8125 -104.1586 360° North 229 264 11,500 -639 Descending Denver Center
Tue 09:17:47 AM 39.8719 -104.1847 341° North 235 270 10,600 -738 Descending Denver Center
Tue 09:18:48 AM 39.8733 -104.2658 271° West 225 259 10,000 -639 Descending Denver Center
Tue 09:19:49 AM 39.8744 -104.3456 271° West 223 257 9,300 -927 Descending Denver Center
Tue 09:20:51 AM 39.8753 -104.4239 271° West 218 251 8,100 -1,171 Descending Denver Center
Tue 09:21:52 AM 39.8761 -104.5086 271° West 218 251 6,900 -984 Descending Denver Center
Tue 09:22:53 AM 39.8764 -104.5683 270° West 168 193 6,100 -738 Descending Denver Center
Tue 09:23:54 AM 39.8769 -104.6181 271° West 142 163 5,400 -689 Descending Denver Center
Tue 09:25:00 AM 39.8500 -104.6667 247° West  Level FlightAware Approximate
Tue 09:32:00 AM 39.8617 -104.6732 247° West  Level Estimated
Tue 09:33:00 AM 39.8617 -104.6732 247° West  Level Estimated
Tue 09:34:00 AM 39.8617 -104.6732 247° West  Level Estimated

Login

Don't have an account? Register now (free) for customized features, flight alerts, and more!